createdAt,value
2022-08-17T00:01:56.795Z,21.10
2022-08-17T00:04:00.199Z,21.10
2022-08-17T00:06:06.961Z,21.10
2022-08-17T00:08:09.674Z,21.20
2022-08-17T00:10:12.382Z,21.20
2022-08-17T00:12:43.445Z,21.20
2022-08-17T00:14:39.901Z,21.20
2022-08-17T00:16:57.045Z,21.10
2022-08-17T00:19:07.511Z,21.10
2022-08-17T00:21:11.359Z,20.80
2022-08-17T00:23:16.009Z,20.80
2022-08-17T00:25:20.487Z,20.80
2022-08-17T00:27:23.208Z,20.90
2022-08-17T00:29:25.904Z,20.80
2022-08-17T00:31:30.038Z,20.70
2022-08-17T00:33:32.871Z,20.60
2022-08-17T00:35:35.585Z,20.60
2022-08-17T00:37:38.299Z,20.60
2022-08-17T00:39:41.207Z,20.70
2022-08-17T00:41:44.257Z,20.70
2022-08-17T00:43:48.265Z,20.80
2022-08-17T00:45:50.972Z,20.80
2022-08-17T00:47:55.032Z,20.70
2022-08-17T00:49:57.734Z,20.50
2022-08-17T00:52:10.885Z,20.30
2022-08-17T00:54:18.450Z,20.20
2022-08-17T00:56:34.258Z,20.30
2022-08-17T00:58:37.290Z,20.30
2022-08-17T01:00:41.616Z,20.30
2022-08-17T01:02:45.278Z,20.30
2022-08-17T01:04:50.252Z,20.20
2022-08-17T01:06:53.049Z,20.20
2022-08-17T01:08:57.381Z,20.10
2022-08-17T01:11:02.333Z,20.10
2022-08-17T01:13:05.364Z,20.20
2022-08-17T01:15:08.892Z,20.20
2022-08-17T01:17:11.747Z,20.20
2022-08-17T01:19:16.721Z,20.10
2022-08-17T01:21:27.637Z,20.10
2022-08-17T01:23:31.663Z,20.00
2022-08-17T01:25:34.359Z,20.00
2022-08-17T01:27:37.398Z,20.00
2022-08-17T01:29:40.829Z,19.90
2022-08-17T01:31:46.411Z,19.80
2022-08-17T01:33:49.149Z,19.70
2022-08-17T01:35:51.866Z,19.70
2022-08-17T01:37:54.606Z,19.60
2022-08-17T01:40:00.628Z,19.50
2022-08-17T01:42:06.587Z,19.50
2022-08-17T01:44:09.348Z,19.40
2022-08-17T01:46:13.669Z,19.40
2022-08-17T01:48:16.521Z,19.50
2022-08-17T01:50:20.629Z,19.60
2022-08-17T01:52:23.977Z,19.60
2022-08-17T01:54:26.680Z,19.60
2022-08-17T01:56:30.971Z,19.60
2022-08-17T01:58:33.951Z,19.60
2022-08-17T02:00:59.449Z,19.50
2022-08-17T02:02:59.831Z,19.50
2022-08-17T02:05:02.546Z,19.40
2022-08-17T02:07:05.442Z,19.40
2022-08-17T02:09:08.511Z,19.40
2022-08-17T02:11:20.935Z,19.40
2022-08-17T02:13:28.049Z,19.20
2022-08-17T02:15:30.896Z,19.20
2022-08-17T02:17:33.719Z,19.10
2022-08-17T02:19:36.428Z,19.20
2022-08-17T02:21:39.315Z,19.20
2022-08-17T02:23:43.788Z,19.30
2022-08-17T02:25:47.627Z,19.30
2022-08-17T02:27:50.346Z,19.30
2022-08-17T02:29:54.415Z,19.20
2022-08-17T02:31:58.536Z,19.20
2022-08-17T02:34:03.935Z,19.20
2022-08-17T02:36:08.879Z,19.20
2022-08-17T02:38:11.591Z,19.10
2022-08-17T02:40:14.345Z,19.00
2022-08-17T02:42:17.088Z,18.90
2022-08-17T02:44:39.644Z,18.70
2022-08-17T02:46:43.825Z,18.70
2022-08-17T02:48:46.520Z,18.70
2022-08-17T02:50:49.288Z,18.70
2022-08-17T02:53:02.013Z,18.70
2022-08-17T02:55:05.951Z,18.70
2022-08-17T02:57:08.661Z,18.60
2022-08-17T02:59:11.358Z,18.60
2022-08-17T03:01:14.095Z,18.60
2022-08-17T03:03:19.700Z,18.60
2022-08-17T03:05:23.141Z,18.60
2022-08-17T03:07:25.844Z,18.60
2022-08-17T03:09:28.551Z,18.50
2022-08-17T03:11:31.250Z,18.50
2022-08-17T03:13:34.050Z,18.30
2022-08-17T03:15:36.921Z,18.20
2022-08-17T03:17:43.425Z,18.20
2022-08-17T03:19:47.451Z,18.30
2022-08-17T03:21:54.820Z,18.20
2022-08-17T03:23:58.220Z,18.30
2022-08-17T03:26:01.037Z,18.30
2022-08-17T03:28:05.386Z,18.30
2022-08-17T03:30:10.377Z,18.30
2022-08-17T03:32:13.913Z,18.20
2022-08-17T03:34:16.674Z,18.20
2022-08-17T03:36:20.705Z,18.20
2022-08-17T03:38:23.477Z,18.20
2022-08-17T03:40:55.530Z,18.20
2022-08-17T03:42:49.191Z,18.20
2022-08-17T03:44:52.100Z,18.10
2022-08-17T03:47:25.790Z,18.20
2022-08-17T03:49:54.655Z,18.20
2022-08-17T03:52:16.367Z,18.20
2022-08-17T03:54:36.768Z,18.20
2022-08-17T03:56:45.575Z,18.10
2022-08-17T03:58:48.634Z,18.10
2022-08-17T04:00:51.427Z,18.00
2022-08-17T04:02:54.199Z,18.00
2022-08-17T04:04:57.172Z,18.10
2022-08-17T04:07:01.225Z,18.10
2022-08-17T04:09:04.221Z,18.10
2022-08-17T04:11:07.133Z,18.20
2022-08-17T04:13:09.848Z,18.20
2022-08-17T04:15:13.225Z,18.20
2022-08-17T04:17:15.926Z,18.10
2022-08-17T04:19:19.243Z,18.10
2022-08-17T04:21:22.053Z,18.00
2022-08-17T04:23:28.324Z,17.90
2022-08-17T04:25:32.177Z,17.80
2022-08-17T04:27:34.892Z,17.80
2022-08-17T04:29:50.080Z,17.70
2022-08-17T04:31:58.980Z,17.70
2022-08-17T04:34:01.705Z,17.80
2022-08-17T04:36:05.361Z,17.80
2022-08-17T04:38:08.757Z,17.90
2022-08-17T04:40:31.283Z,17.90
2022-08-17T04:42:34.092Z,17.90
2022-08-17T04:44:37.569Z,18.00
2022-08-17T04:46:40.832Z,18.00
2022-08-17T04:48:44.516Z,18.10
2022-08-17T04:50:48.183Z,18.10
2022-08-17T04:52:50.901Z,18.10
2022-08-17T04:54:53.604Z,18.20
2022-08-17T04:56:57.653Z,18.20
2022-08-17T04:59:02.476Z,18.20
2022-08-17T05:01:05.823Z,18.30
2022-08-17T05:03:08.584Z,18.20
2022-08-17T05:05:11.293Z,18.30
2022-08-17T05:07:19.801Z,18.30
2022-08-17T05:09:25.311Z,18.40
2022-08-17T05:11:30.436Z,18.50
2022-08-17T05:13:34.506Z,18.70
2022-08-17T05:15:38.132Z,18.80
2022-08-17T05:17:47.699Z,18.90
2022-08-17T05:19:52.140Z,19.00
2022-08-17T05:21:54.905Z,19.10
2022-08-17T05:23:58.442Z,19.20
2022-08-17T05:26:02.251Z,19.30
2022-08-17T05:28:05.439Z,19.30
2022-08-17T05:30:11.426Z,19.40
2022-08-17T05:32:38.769Z,19.60
2022-08-17T05:34:37.541Z,19.60
2022-08-17T05:36:44.010Z,19.80
2022-08-17T05:38:47.127Z,19.90
2022-08-17T05:40:49.951Z,20.00
2022-08-17T05:42:52.978Z,20.10
2022-08-17T05:44:58.173Z,20.20
2022-08-17T05:47:02.204Z,20.30
2022-08-17T05:49:07.795Z,20.40
2022-08-17T05:51:44.186Z,20.40
2022-08-17T05:53:48.361Z,20.40
2022-08-17T05:55:54.317Z,20.50
2022-08-17T05:58:03.127Z,20.50
2022-08-17T06:00:08.641Z,20.60
2022-08-17T06:02:18.310Z,20.70
2022-08-17T06:04:26.092Z,20.70
2022-08-17T06:06:35.572Z,20.80
2022-08-17T06:08:42.293Z,20.90
2022-08-17T06:10:48.569Z,21.00
2022-08-17T06:12:57.474Z,21.10
2022-08-17T06:15:11.722Z,21.10
2022-08-17T06:17:17.556Z,21.20
2022-08-17T06:19:22.998Z,21.30
2022-08-17T06:21:30.466Z,21.40
2022-08-17T06:23:36.387Z,21.50
2022-08-17T06:25:43.277Z,21.60
2022-08-17T06:27:48.284Z,21.60
2022-08-17T06:29:58.765Z,21.70
2022-08-17T06:32:02.384Z,21.90
2022-08-17T06:34:10.566Z,21.90
2022-08-17T06:36:26.358Z,22.10
2022-08-17T06:38:37.475Z,22.10
2022-08-17T06:41:00.856Z,22.20
2022-08-17T06:43:23.016Z,22.30
2022-08-17T06:45:28.738Z,22.50
2022-08-17T06:47:35.176Z,22.60
2022-08-17T06:49:46.275Z,22.50
2022-08-17T06:51:52.419Z,22.80
2022-08-17T06:54:00.017Z,22.80
2022-08-17T06:56:04.206Z,22.90
2022-08-17T06:58:15.554Z,23.00
2022-08-17T07:00:20.508Z,23.10
2022-08-17T07:02:29.376Z,23.00
2022-08-17T07:04:50.456Z,23.10
2022-08-17T07:06:54.296Z,23.20
2022-08-17T07:08:59.101Z,23.20
2022-08-17T07:11:04.664Z,23.20
2022-08-17T07:13:31.104Z,23.20
2022-08-17T07:15:41.765Z,23.20
2022-08-17T07:17:48.391Z,23.30
2022-08-17T07:19:55.476Z,23.50
2022-08-17T07:22:01.720Z,23.70
2022-08-17T07:24:11.954Z,24.00
2022-08-17T07:26:33.052Z,24.30
2022-08-17T07:28:35.856Z,24.50
2022-08-17T07:30:46.983Z,24.70
2022-08-17T07:32:53.288Z,25.30
2022-08-17T07:35:17.820Z,25.40
2022-08-17T07:37:22.656Z,25.90
2022-08-17T07:39:27.393Z,25.90
2022-08-17T07:41:53.116Z,26.10
2022-08-17T07:43:55.057Z,26.30
2022-08-17T07:46:25.352Z,26.20
2022-08-17T07:48:27.192Z,26.50
2022-08-17T07:50:31.549Z,26.60
2022-08-17T07:52:50.327Z,26.50
2022-08-17T07:54:55.972Z,26.50
2022-08-17T07:57:00.192Z,26.60
2022-08-17T07:59:11.101Z,26.60
2022-08-17T08:01:18.162Z,26.70
2022-08-17T08:03:26.184Z,26.60
2022-08-17T08:05:49.300Z,26.50
2022-08-17T08:07:55.221Z,26.60
2022-08-17T08:10:02.469Z,26.60
2022-08-17T08:12:24.604Z,26.70
2022-08-17T08:14:34.009Z,26.70
2022-08-17T08:16:36.712Z,26.80
2022-08-17T08:18:55.827Z,27.10
2022-08-17T08:21:02.237Z,27.20
2022-08-17T08:23:08.085Z,27.30
2022-08-17T08:25:20.574Z,27.40
2022-08-17T08:27:30.162Z,27.20
2022-08-17T08:29:34.491Z,27.20
2022-08-17T08:31:46.067Z,27.40
2022-08-17T08:33:54.914Z,27.50
2022-08-17T08:36:03.324Z,27.50
2022-08-17T08:38:11.755Z,27.50
2022-08-17T08:40:29.791Z,27.50
2022-08-17T08:42:36.293Z,27.60
2022-08-17T08:45:00.663Z,27.70
2022-08-17T08:47:11.104Z,27.80
2022-08-17T08:50:01.282Z,28.00
2022-08-17T08:51:57.278Z,28.00
2022-08-17T08:54:03.416Z,28.10
2022-08-17T08:56:07.615Z,28.00
2022-08-17T08:58:31.302Z,28.10
2022-08-17T09:00:35.807Z,28.40
2022-08-17T09:03:16.204Z,28.40
2022-08-17T09:05:26.606Z,28.80
2022-08-17T09:07:36.501Z,29.10
2022-08-17T09:09:44.525Z,29.40
2022-08-17T09:12:01.106Z,29.80
2022-08-17T09:14:21.581Z,30.00
2022-08-17T09:16:29.603Z,30.30
2022-08-17T09:18:59.087Z,30.80
2022-08-17T09:20:57.724Z,31.20
2022-08-17T09:23:07.066Z,31.60
2022-08-17T09:25:11.253Z,31.80
2022-08-17T09:27:15.267Z,32.10
2022-08-17T09:29:18.297Z,32.20
2022-08-17T09:31:23.878Z,32.00
2022-08-17T09:33:27.619Z,32.30
2022-08-17T09:35:37.223Z,32.60
2022-08-17T09:37:48.260Z,32.40
2022-08-17T09:39:57.366Z,32.20
2022-08-17T09:42:03.949Z,32.20
2022-08-17T09:44:23.170Z,32.20
2022-08-17T09:46:28.064Z,32.40
2022-08-17T09:48:33.116Z,32.30
2022-08-17T09:51:03.388Z,32.10
2022-08-17T09:53:02.216Z,31.20
2022-08-17T09:55:06.864Z,31.00
2022-08-17T09:57:29.752Z,30.80
2022-08-17T09:59:41.865Z,30.60
2022-08-17T10:01:46.018Z,30.00
2022-08-17T10:04:06.209Z,30.00
2022-08-17T10:06:13.222Z,29.90
2022-08-17T10:08:23.744Z,29.90
2022-08-17T10:10:30.719Z,30.20
2022-08-17T10:12:38.322Z,30.90
2022-08-17T10:14:44.713Z,31.30
2022-08-17T10:16:59.446Z,32.00
2022-08-17T10:19:13.702Z,32.60
2022-08-17T10:21:34.897Z,33.30
2022-08-17T10:23:55.240Z,33.80
2022-08-17T10:26:16.555Z,33.50
2022-08-17T10:28:23.724Z,33.20
2022-08-17T10:30:31.648Z,32.60
2022-08-17T10:32:36.117Z,32.10
2022-08-17T10:34:57.528Z,32.00
2022-08-17T10:37:05.701Z,31.80
2022-08-17T10:39:11.970Z,31.70
2022-08-17T10:41:24.013Z,31.10
2022-08-17T10:43:57.811Z,30.90
2022-08-17T10:46:31.274Z,30.80
2022-08-17T10:48:36.601Z,30.80
2022-08-17T10:51:00.425Z,30.90
2022-08-17T10:53:03.147Z,31.00
2022-08-17T10:55:13.212Z,30.80
2022-08-17T10:57:42.165Z,30.50
2022-08-17T10:59:52.150Z,30.40
2022-08-17T11:02:12.177Z,30.70
2022-08-17T11:04:25.284Z,30.80
2022-08-17T11:06:33.066Z,30.80
2022-08-17T11:09:01.034Z,30.90
2022-08-17T11:11:17.419Z,31.00
2022-08-17T11:13:28.616Z,30.80
2022-08-17T11:15:42.000Z,30.90
2022-08-17T11:17:58.120Z,30.80
2022-08-17T11:20:28.904Z,30.60
2022-08-17T11:22:44.306Z,30.30
2022-08-17T11:24:48.025Z,30.40
2022-08-17T11:27:06.089Z,30.40
2022-08-17T11:29:19.005Z,30.30
2022-08-17T11:31:38.952Z,30.30
2022-08-17T11:33:55.366Z,30.10
2022-08-17T11:36:04.041Z,30.10
2022-08-17T11:38:16.829Z,30.00
2022-08-17T11:40:36.142Z,30.10
2022-08-17T11:42:48.728Z,30.10
2022-08-17T11:44:54.353Z,30.10
2022-08-17T11:47:26.106Z,30.20
2022-08-17T11:50:05.135Z,30.20
2022-08-17T11:52:38.768Z,30.20
2022-08-17T11:54:45.028Z,30.10
2022-08-17T11:56:48.660Z,30.20
2022-08-17T11:58:51.406Z,30.10
2022-08-17T12:00:57.642Z,29.90
2022-08-17T12:03:22.296Z,30.00
2022-08-17T12:05:35.572Z,30.00
2022-08-17T12:07:42.413Z,30.00
2022-08-17T12:09:46.589Z,30.00
2022-08-17T12:11:58.616Z,29.90
2022-08-17T12:14:20.150Z,29.90
2022-08-17T12:16:26.708Z,30.00
2022-08-17T12:18:30.408Z,30.00
2022-08-17T12:20:37.105Z,30.10
2022-08-17T12:22:43.225Z,30.20
2022-08-17T12:24:54.518Z,30.20
2022-08-17T12:26:59.629Z,30.10
2022-08-17T12:29:03.631Z,30.20
2022-08-17T12:31:08.760Z,30.40
2022-08-17T12:33:25.534Z,30.50
2022-08-17T12:35:33.087Z,30.50
2022-08-17T12:37:35.842Z,30.60
2022-08-17T12:39:38.853Z,30.60
2022-08-17T12:41:43.269Z,30.80
2022-08-17T12:43:45.981Z,30.80
2022-08-17T12:45:56.849Z,30.90
2022-08-17T12:48:06.464Z,31.00
2022-08-17T12:50:29.159Z,31.00
2022-08-17T12:52:32.939Z,31.10
2022-08-17T12:54:46.597Z,31.20
2022-08-17T12:56:49.316Z,31.40
2022-08-17T12:58:53.431Z,31.60
2022-08-17T13:00:59.345Z,31.80
2022-08-17T13:03:03.274Z,32.00
2022-08-17T13:05:07.334Z,32.00
2022-08-17T13:07:12.132Z,31.80
2022-08-17T13:09:18.957Z,32.20
2022-08-17T13:11:24.109Z,32.20
2022-08-17T13:13:27.940Z,32.20
2022-08-17T13:15:32.839Z,32.40
2022-08-17T13:17:36.538Z,32.70
2022-08-17T13:19:46.486Z,33.00
2022-08-17T13:21:51.365Z,32.90
2022-08-17T13:24:00.737Z,32.90
2022-08-17T13:26:05.913Z,32.80
2022-08-17T13:28:17.553Z,32.80
2022-08-17T13:30:22.401Z,32.90
2022-08-17T13:32:34.856Z,33.10
2022-08-17T13:35:03.775Z,33.00
2022-08-17T13:37:30.065Z,33.20
2022-08-17T13:39:34.139Z,32.80
2022-08-17T13:41:38.854Z,32.60
2022-08-17T13:43:48.451Z,32.50
2022-08-17T13:45:52.194Z,32.50
2022-08-17T13:48:06.337Z,32.30
2022-08-17T13:50:18.644Z,32.30
2022-08-17T13:52:35.541Z,32.00
2022-08-17T13:54:42.153Z,31.90
2022-08-17T13:56:53.890Z,31.80
2022-08-17T13:58:58.359Z,31.70
2022-08-17T14:01:28.689Z,31.50
2022-08-17T14:03:31.438Z,31.40
2022-08-17T14:05:38.259Z,31.30
2022-08-17T14:07:41.225Z,31.30
2022-08-17T14:09:48.669Z,31.10
2022-08-17T14:11:52.384Z,31.10
2022-08-17T14:13:55.411Z,31.10
2022-08-17T14:15:58.251Z,31.00
2022-08-17T14:18:00.975Z,30.90
2022-08-17T14:20:04.164Z,30.70
2022-08-17T14:22:08.969Z,30.70
2022-08-17T14:24:16.833Z,30.70
2022-08-17T14:26:20.878Z,30.60
2022-08-17T14:28:25.928Z,30.60
2022-08-17T14:30:30.793Z,30.60
2022-08-17T14:32:35.620Z,30.50
2022-08-17T14:34:38.343Z,30.40
2022-08-17T14:36:48.255Z,30.30
2022-08-17T14:38:51.445Z,30.20
2022-08-17T14:40:54.149Z,30.10
2022-08-17T14:42:58.385Z,30.00
2022-08-17T14:45:05.897Z,29.90
2022-08-17T14:47:14.873Z,29.80
2022-08-17T14:49:19.710Z,29.80
2022-08-17T14:51:23.184Z,29.70
2022-08-17T14:53:25.941Z,29.50
2022-08-17T14:55:29.704Z,29.40
2022-08-17T14:57:33.587Z,29.30
2022-08-17T14:59:38.592Z,29.20
2022-08-17T15:01:41.378Z,29.00
2022-08-17T15:03:44.201Z,29.00
2022-08-17T15:05:48.492Z,28.80
2022-08-17T15:07:53.242Z,28.60
2022-08-17T15:09:56.661Z,28.30
2022-08-17T15:12:01.552Z,28.10
2022-08-17T15:14:04.307Z,27.50
2022-08-17T15:16:09.721Z,27.20
2022-08-17T15:18:12.845Z,26.30
2022-08-17T15:20:16.489Z,25.60
2022-08-17T15:22:20.082Z,24.40
2022-08-17T15:24:22.817Z,23.50
2022-08-17T15:26:26.433Z,23.00
2022-08-17T15:28:29.368Z,22.90
2022-08-17T15:30:32.198Z,22.40
2022-08-17T15:32:39.129Z,22.50
2022-08-17T15:34:41.855Z,22.50
2022-08-17T15:36:49.247Z,22.70
2022-08-17T15:38:52.412Z,22.80
2022-08-17T15:40:55.232Z,22.90
2022-08-17T15:42:59.102Z,23.10
2022-08-17T15:45:03.760Z,23.50
2022-08-17T15:47:06.755Z,23.80
2022-08-17T15:49:11.172Z,23.60
2022-08-17T15:51:15.864Z,24.10
2022-08-17T15:53:18.587Z,24.10
2022-08-17T15:55:24.078Z,24.50
2022-08-17T15:57:27.338Z,24.40
2022-08-17T15:59:30.945Z,24.40
2022-08-17T16:03:01.076Z,24.60
2022-08-17T16:04:04.235Z,24.70
2022-08-17T16:06:10.994Z,24.90
2022-08-17T16:08:18.508Z,24.90
2022-08-17T16:10:34.839Z,24.80
2022-08-17T16:12:38.665Z,25.00
2022-08-17T16:14:41.410Z,24.90
2022-08-17T16:16:44.116Z,24.80
2022-08-17T16:18:46.826Z,24.70
2022-08-17T16:20:57.424Z,24.70
2022-08-17T16:23:03.000Z,24.70
2022-08-17T16:25:06.631Z,24.80
2022-08-17T16:27:12.638Z,24.80
2022-08-17T16:29:15.508Z,24.70
2022-08-17T16:31:18.266Z,24.70
2022-08-17T16:33:21.305Z,24.80
2022-08-17T16:35:26.292Z,24.70
2022-08-17T16:37:30.797Z,24.60
2022-08-17T16:39:39.061Z,24.70
2022-08-17T16:41:44.915Z,24.70
2022-08-17T16:43:50.947Z,24.80
2022-08-17T16:45:53.671Z,24.90
2022-08-17T16:48:01.612Z,25.10
2022-08-17T16:50:05.304Z,25.10
2022-08-17T16:52:09.575Z,25.10
2022-08-17T16:54:17.584Z,25.20
2022-08-17T16:56:21.832Z,25.30
2022-08-17T16:58:24.545Z,25.30
2022-08-17T17:00:27.258Z,25.40
2022-08-17T17:02:31.489Z,25.40
2022-08-17T17:04:35.000Z,25.30
2022-08-17T17:06:43.697Z,25.30
2022-08-17T17:08:48.312Z,25.20
2022-08-17T17:10:51.676Z,25.30
2022-08-17T17:13:01.378Z,25.30
2022-08-17T17:15:06.600Z,25.20
2022-08-17T17:17:22.084Z,25.10
2022-08-17T17:19:34.557Z,25.00
2022-08-17T17:21:42.763Z,25.00
2022-08-17T17:23:51.291Z,24.90
2022-08-17T17:25:59.156Z,24.80
2022-08-17T17:28:07.276Z,24.80
2022-08-17T17:30:11.624Z,24.80
2022-08-17T17:32:20.875Z,24.70
2022-08-17T17:34:23.633Z,24.60
2022-08-17T17:36:28.078Z,24.60
2022-08-17T17:38:32.393Z,24.50
2022-08-17T17:40:38.133Z,24.50
2022-08-17T17:42:41.461Z,24.40
2022-08-17T17:44:47.467Z,24.30
2022-08-17T17:46:54.154Z,24.30
2022-08-17T17:48:56.948Z,24.30
2022-08-17T17:51:02.491Z,24.30
2022-08-17T17:53:08.773Z,24.20
2022-08-17T17:55:26.954Z,24.20
2022-08-17T17:57:34.841Z,24.20
2022-08-17T17:59:44.125Z,24.10
2022-08-17T18:01:51.263Z,24.10
2022-08-17T18:04:20.759Z,24.20
2022-08-17T18:06:29.279Z,24.20
2022-08-17T18:08:39.429Z,24.20
2022-08-17T18:10:48.926Z,24.10
2022-08-17T18:12:54.353Z,24.10
2022-08-17T18:15:07.102Z,24.10
2022-08-17T18:17:11.153Z,24.00
2022-08-17T18:19:14.157Z,23.90
2022-08-17T18:21:19.277Z,23.80
2022-08-17T18:23:27.065Z,23.80
2022-08-17T18:25:43.904Z,23.70
2022-08-17T18:27:51.359Z,23.80
2022-08-17T18:29:54.692Z,23.70
2022-08-17T18:32:28.569Z,23.80
2022-08-17T18:34:48.578Z,23.80
2022-08-17T18:36:51.732Z,23.70
2022-08-17T18:38:55.533Z,23.70
2022-08-17T18:41:03.585Z,23.70
2022-08-17T18:43:14.446Z,23.70
2022-08-17T18:45:20.294Z,23.70
2022-08-17T18:47:25.362Z,23.60
2022-08-17T18:49:29.028Z,23.50
2022-08-17T18:51:40.606Z,23.50
2022-08-17T18:53:45.637Z,23.40
2022-08-17T18:55:48.360Z,23.30
2022-08-17T18:57:52.946Z,23.20
2022-08-17T18:59:55.904Z,23.00
2022-08-17T19:02:10.201Z,23.00
2022-08-17T19:04:34.676Z,23.00
2022-08-17T19:06:39.498Z,23.00
2022-08-17T19:08:42.281Z,23.00
2022-08-17T19:10:46.271Z,23.00
2022-08-17T19:12:53.248Z,22.90
2022-08-17T19:14:56.913Z,23.00
2022-08-17T19:17:02.278Z,22.90
2022-08-17T19:19:08.903Z,22.90
2022-08-17T19:21:16.314Z,22.90
2022-08-17T19:23:21.905Z,22.90
2022-08-17T19:25:27.199Z,22.90
2022-08-17T19:27:57.504Z,22.90
2022-08-17T19:30:01.650Z,22.80
2022-08-17T19:32:07.498Z,22.80
2022-08-17T19:34:10.696Z,22.70
2022-08-17T19:36:25.630Z,22.60
2022-08-17T19:38:35.500Z,22.60
2022-08-17T19:40:52.809Z,22.50
2022-08-17T19:42:58.561Z,22.40
2022-08-17T19:45:03.232Z,22.40
2022-08-17T19:47:11.831Z,22.30
2022-08-17T19:49:17.108Z,22.30
2022-08-17T19:51:28.053Z,22.20
2022-08-17T19:54:01.596Z,22.10
2022-08-17T19:56:02.460Z,22.10
2022-08-17T19:58:07.612Z,22.10
2022-08-17T20:00:12.739Z,22.10
2022-08-17T20:02:21.798Z,22.00
2022-08-17T20:04:33.729Z,22.00
2022-08-17T20:06:39.800Z,22.00
2022-08-17T20:08:54.942Z,22.00
2022-08-17T20:10:59.394Z,22.00
2022-08-17T20:13:04.437Z,22.10
2022-08-17T20:15:09.460Z,22.00
2022-08-17T20:17:12.188Z,22.00
2022-08-17T20:19:21.921Z,21.90
2022-08-17T20:21:25.727Z,22.00
2022-08-17T20:23:41.007Z,22.00
2022-08-17T20:25:47.018Z,21.90
2022-08-17T20:27:52.183Z,21.80
2022-08-17T20:30:06.787Z,21.80
2022-08-17T20:32:25.115Z,21.70
2022-08-17T20:34:37.435Z,21.60
2022-08-17T20:36:40.741Z,21.60
2022-08-17T20:38:46.047Z,21.70
2022-08-17T20:41:07.705Z,21.60
2022-08-17T20:43:51.049Z,21.60
2022-08-17T20:46:11.939Z,21.60
2022-08-17T20:48:35.983Z,21.60
2022-08-17T20:50:41.665Z,21.50
2022-08-17T20:52:52.296Z,21.50
2022-08-17T20:54:57.248Z,21.40
2022-08-17T20:57:00.930Z,21.40
2022-08-17T20:59:03.657Z,21.30
2022-08-17T21:01:13.511Z,21.20
2022-08-17T21:03:51.227Z,21.20
2022-08-17T21:05:59.907Z,21.20
2022-08-17T21:08:14.032Z,21.10
2022-08-17T21:10:19.406Z,21.20
2022-08-17T21:12:40.594Z,21.10
2022-08-17T21:14:58.017Z,21.10
2022-08-17T21:17:06.779Z,21.10
2022-08-17T21:19:22.112Z,21.10
2022-08-17T21:21:25.960Z,21.10
2022-08-17T21:23:43.850Z,21.00
2022-08-17T21:26:02.599Z,21.00
2022-08-17T21:28:08.608Z,21.10
2022-08-17T21:30:17.344Z,21.00
2022-08-17T21:32:28.164Z,21.00
2022-08-17T21:34:32.836Z,21.00
2022-08-17T21:36:35.597Z,21.00
2022-08-17T21:38:39.207Z,21.00
2022-08-17T21:40:45.004Z,20.90
2022-08-17T21:42:52.668Z,20.90
2022-08-17T21:44:57.934Z,20.90
2022-08-17T21:47:13.653Z,20.80
2022-08-17T21:49:20.395Z,20.70
2022-08-17T21:51:24.301Z,20.80
2022-08-17T21:53:33.023Z,20.70
2022-08-17T21:55:36.722Z,20.50
2022-08-17T21:57:41.627Z,20.30
2022-08-17T21:59:58.265Z,20.30
2022-08-17T22:02:01.701Z,20.30
2022-08-17T22:04:08.577Z,20.40
2022-08-17T22:06:22.169Z,20.40
2022-08-17T22:08:25.483Z,20.30
2022-08-17T22:10:30.406Z,20.40
2022-08-17T22:12:33.177Z,20.40
2022-08-17T22:14:51.474Z,20.40
2022-08-17T22:17:17.655Z,20.50
2022-08-17T22:19:21.052Z,20.40
2022-08-17T22:21:25.151Z,20.40
2022-08-17T22:23:46.949Z,20.30
2022-08-17T22:26:00.762Z,20.40
2022-08-17T22:28:04.717Z,20.40
2022-08-17T22:30:17.082Z,20.40
2022-08-17T22:32:38.276Z,20.40
2022-08-17T22:34:41.005Z,20.40
2022-08-17T22:36:43.715Z,20.40
2022-08-17T22:38:46.433Z,20.40
2022-08-17T22:40:50.583Z,20.40
2022-08-17T22:42:53.712Z,20.40
2022-08-17T22:44:56.773Z,20.40
2022-08-17T22:47:02.200Z,20.40
2022-08-17T22:49:06.261Z,20.40
2022-08-17T22:51:13.686Z,20.40
2022-08-17T22:53:35.961Z,20.40
2022-08-17T22:55:56.375Z,20.30
2022-08-17T22:58:16.812Z,20.20
2022-08-17T23:00:29.844Z,20.10
2022-08-17T23:02:33.546Z,20.10
2022-08-17T23:04:39.213Z,20.10
2022-08-17T23:06:42.654Z,20.10
2022-08-17T23:08:49.760Z,20.00
2022-08-17T23:10:52.484Z,20.00
2022-08-17T23:12:59.645Z,20.00
2022-08-17T23:15:04.039Z,20.00
2022-08-17T23:17:07.240Z,19.90
2022-08-17T23:19:10.208Z,20.00
2022-08-17T23:21:15.962Z,20.00
2022-08-17T23:23:29.221Z,20.00
2022-08-17T23:25:33.538Z,20.10
2022-08-17T23:27:36.780Z,20.00
2022-08-17T23:29:41.971Z,20.10
2022-08-17T23:31:44.713Z,20.10
2022-08-17T23:33:47.598Z,20.10
2022-08-17T23:35:50.330Z,20.20
2022-08-17T23:37:55.570Z,20.20
2022-08-17T23:39:58.335Z,20.20
2022-08-17T23:42:01.924Z,20.10
2022-08-17T23:44:05.479Z,20.10
2022-08-17T23:46:08.322Z,20.10
2022-08-17T23:48:11.023Z,20.10
2022-08-17T23:50:13.794Z,20.10
2022-08-17T23:52:16.603Z,20.10
2022-08-17T23:54:23.709Z,20.00
2022-08-17T23:56:26.628Z,19.90
2022-08-17T23:58:29.340Z,19.90
